Time;durP1;ratioP1;P1;durP2;ratioP2;P2;SDS_P1;SDS_P2;PMS_P1;PMS_P2;Temp;Humidity;BMP_temperature;BMP_pressure;BME280_temperature;BME280_humidity;BME280_pressure;Samples;Min_cycle;Max_cycle;Signal;HPM_P1;HPM_P2
2022/02/25 00:02:07;;;;;;;8.45;5.90;;;;;;;;;;5014434;28;20057;-87
2022/02/25 00:04:33;;;;;;;8.82;5.57;;;;;;;;;;5015090;28;20021;-86
2022/02/25 00:06:59;;;;;;;9.95;5.60;;;;;;;;;;5015599;28;20358;-85
2022/02/25 00:09:25;;;;;;;10.02;5.63;;;;;;;;;;5036450;28;20030;-86
2022/02/25 00:11:51;;;;;;;9.07;5.38;;;;;;;;;;5018422;28;20029;-85
2022/02/25 00:14:17;;;;;;;9.20;5.30;;;;;;;;;;5034918;28;20373;-85
2022/02/25 00:16:44;;;;;;;11.30;5.80;;;;;;;;;;5035224;28;20115;-85
2022/02/25 00:19:10;;;;;;;9.70;5.85;;;;;;;;;;5017654;28;20021;-85
2022/02/25 00:21:36;;;;;;;10.00;5.68;;;;;;;;;;5021067;28;20045;-86
2022/02/25 00:24:02;;;;;;;9.93;5.65;;;;;;;;;;5021541;28;20087;-86
2022/02/25 00:26:28;;;;;;;11.38;5.72;;;;;;;;;;5030330;28;20041;-86
2022/02/25 00:28:54;;;;;;;9.75;5.53;;;;;;;;;;5039375;28;20234;-85
2022/02/25 00:31:20;;;;;;;8.85;5.38;;;;;;;;;;5021602;28;20026;-86
2022/02/25 00:33:47;;;;;;;8.77;5.47;;;;;;;;;;5038976;28;20104;-86
2022/02/25 00:36:13;;;;;;;11.02;6.25;;;;;;;;;;5049617;28;20508;-86
2022/02/25 00:38:40;;;;;;;9.90;5.72;;;;;;;;;;5038149;28;20445;-86
2022/02/25 00:41:06;;;;;;;9.05;5.60;;;;;;;;;;5058051;28;20025;-86
2022/02/25 00:43:32;;;;;;;9.63;5.90;;;;;;;;;;5057426;28;20024;-86
2022/02/25 00:45:58;;;;;;;10.80;5.93;;;;;;;;;;5057808;28;20025;-86
2022/02/25 00:48:24;;;;;;;11.20;5.95;;;;;;;;;;5040514;28;20472;-85
2022/02/25 00:50:50;;;;;;;9.38;5.80;;;;;;;;;;5057615;28;20029;-86
2022/02/25 00:53:16;;;;;;;11.05;6.10;;;;;;;;;;5040275;28;20532;-86
2022/02/25 00:55:42;;;;;;;10.95;6.40;;;;;;;;;;5040130;28;20029;-86
2022/02/25 00:58:08;;;;;;;10.75;5.78;;;;;;;;;;5039729;28;20064;-85
2022/02/25 01:00:34;;;;;;;15.55;6.22;;;;;;;;;;5039838;28;20036;-85
2022/02/25 01:03:00;;;;;;;8.02;5.75;;;;;;;;;;5039938;28;20029;-85
2022/02/25 01:05:26;;;;;;;8.88;5.88;;;;;;;;;;5059026;28;20036;-85
2022/02/25 01:07:52;;;;;;;10.27;5.55;;;;;;;;;;5059425;28;20071;-85
2022/02/25 01:10:19;;;;;;;9.43;5.90;;;;;;;;;;5058473;28;20032;-85
2022/02/25 01:12:46;;;;;;;10.55;5.88;;;;;;;;;;5041312;28;20109;-85
2022/02/25 01:15:12;;;;;;;8.70;5.90;;;;;;;;;;5040159;28;20043;-85
2022/02/25 01:17:39;;;;;;;10.50;5.60;;;;;;;;;;5057990;28;20037;-86
2022/02/25 01:20:06;;;;;;;11.73;6.43;;;;;;;;;;5036241;28;20055;-87
2022/02/25 01:22:32;;;;;;;11.40;6.50;;;;;;;;;;5035719;28;20025;-86
2022/02/25 01:24:58;;;;;;;9.82;6.05;;;;;;;;;;5052838;28;20029;-86
2022/02/25 01:27:24;;;;;;;10.27;6.05;;;;;;;;;;5042950;28;20052;-87
2022/02/25 01:29:50;;;;;;;9.50;5.80;;;;;;;;;;5039928;28;20051;-86
2022/02/25 01:32:16;;;;;;;10.23;6.25;;;;;;;;;;5042721;28;20033;-85
2022/02/25 01:34:42;;;;;;;13.73;6.93;;;;;;;;;;5038968;28;20029;-86
2022/02/25 01:37:08;;;;;;;11.25;6.45;;;;;;;;;;5044681;28;20041;-86
2022/02/25 01:39:34;;;;;;;10.05;6.40;;;;;;;;;;5052597;28;20029;-87
2022/02/25 01:42:00;;;;;;;11.13;6.68;;;;;;;;;;5049965;28;20025;-85
2022/02/25 01:44:27;;;;;;;12.30;6.40;;;;;;;;;;5070503;28;20067;-87
2022/02/25 01:46:55;;;;;;;11.25;6.38;;;;;;;;;;5051840;28;20392;-85
2022/02/25 01:49:21;;;;;;;9.23;5.75;;;;;;;;;;5052659;28;20575;-85
2022/02/25 01:51:48;;;;;;;10.98;6.60;;;;;;;;;;5069099;28;20025;-85
2022/02/25 01:54:15;;;;;;;11.15;7.15;;;;;;;;;;5069456;28;20028;-85
2022/02/25 01:56:42;;;;;;;9.88;7.07;;;;;;;;;;5068152;28;20017;-86
2022/02/25 01:59:09;;;;;;;8.85;6.32;;;;;;;;;;5068340;28;20017;-86
2022/02/25 02:01:35;;;;;;;12.27;6.70;;;;;;;;;;5049398;28;20108;-86
2022/02/25 02:04:02;;;;;;;10.82;6.00;;;;;;;;;;5067485;28;20146;-86
2022/02/25 02:06:29;;;;;;;9.43;6.57;;;;;;;;;;5050353;28;20544;-87
2022/02/25 02:08:55;;;;;;;11.05;6.60;;;;;;;;;;5049261;28;20090;-87
2022/02/25 02:11:33;;;;;;;13.13;8.65;;;;;;;;;;5049498;28;20483;-85
2022/02/25 02:14:00;;;;;;;26.35;14.60;;;;;;;;;;5057106;28;20045;-86
2022/02/25 02:16:27;;;;;;;23.42;13.00;;;;;;;;;;5048486;28;20021;-86
2022/02/25 02:18:53;;;;;;;21.08;11.18;;;;;;;;;;5047339;28;20028;-86
2022/02/25 02:21:22;;;;;;;21.48;11.60;;;;;;;;;;5056254;28;20024;-86
2022/02/25 02:23:48;;;;;;;14.82;9.00;;;;;;;;;;5047339;28;20063;-87
2022/02/25 02:26:14;;;;;;;13.80;7.75;;;;;;;;;;5046830;28;20024;-85
2022/02/25 02:28:40;;;;;;;15.65;8.85;;;;;;;;;;5049854;28;20045;-85
2022/02/25 02:31:06;;;;;;;14.05;8.93;;;;;;;;;;5048870;28;20029;-85
2022/02/25 02:33:32;;;;;;;14.35;8.45;;;;;;;;;;5065508;28;20037;-85
2022/02/25 02:35:58;;;;;;;12.55;8.13;;;;;;;;;;5064800;28;20253;-85
2022/02/25 02:38:24;;;;;;;13.18;8.15;;;;;;;;;;5046768;28;20040;-85
2022/02/25 02:40:52;;;;;;;12.93;7.80;;;;;;;;;;5064211;28;20029;-86
2022/02/25 02:43:18;;;;;;;13.98;7.38;;;;;;;;;;5046540;28;20241;-86
2022/02/25 02:45:44;;;;;;;12.27;6.90;;;;;;;;;;5045302;28;20052;-87
2022/02/25 02:48:10;;;;;;;11.88;6.05;;;;;;;;;;5044917;28;20025;-86
2022/02/25 02:50:36;;;;;;;9.43;5.80;;;;;;;;;;5062074;28;20021;-86
2022/02/25 02:53:02;;;;;;;10.07;6.80;;;;;;;;;;5044836;28;20048;-85
2022/02/25 02:55:28;;;;;;;9.80;6.38;;;;;;;;;;5044411;28;20056;-86
2022/02/25 02:57:54;;;;;;;13.57;7.15;;;;;;;;;;5062256;28;20029;-86
2022/02/25 03:00:20;;;;;;;9.68;5.85;;;;;;;;;;5036730;28;20450;-85
2022/02/25 03:02:46;;;;;;;9.85;6.35;;;;;;;;;;5055157;28;20040;-85
2022/02/25 03:05:12;;;;;;;10.93;6.65;;;;;;;;;;5054181;28;20021;-84
2022/02/25 03:07:39;;;;;;;10.35;7.05;;;;;;;;;;5036435;28;20500;-85
2022/02/25 03:10:06;;;;;;;10.10;7.25;;;;;;;;;;5036780;28;20017;-83
2022/02/25 03:12:33;;;;;;;10.77;6.30;;;;;;;;;;5055919;28;20484;-83
2022/02/25 03:14:59;;;;;;;10.90;6.65;;;;;;;;;;5038226;28;20517;-83
2022/02/25 03:17:25;;;;;;;11.93;7.05;;;;;;;;;;5036675;28;20624;-83
2022/02/25 03:19:51;;;;;;;12.82;7.07;;;;;;;;;;5038922;28;20033;-83
2022/02/25 03:22:17;;;;;;;12.32;6.70;;;;;;;;;;5055982;28;20139;-84
2022/02/25 03:24:43;;;;;;;12.45;7.40;;;;;;;;;;5055478;28;20506;-85
2022/02/25 03:27:09;;;;;;;11.02;6.97;;;;;;;;;;5056209;28;20477;-86
2022/02/25 03:29:35;;;;;;;12.32;7.20;;;;;;;;;;5055977;28;20051;-85
2022/02/25 03:32:01;;;;;;;12.98;8.00;;;;;;;;;;5040330;28;20029;-86
2022/02/25 03:34:27;;;;;;;10.55;6.90;;;;;;;;;;5057698;28;20055;-87
2022/02/25 03:36:53;;;;;;;11.43;6.88;;;;;;;;;;5038847;28;20045;-86
2022/02/25 03:39:19;;;;;;;12.07;7.32;;;;;;;;;;5058357;28;20063;-85
2022/02/25 03:41:45;;;;;;;11.13;7.22;;;;;;;;;;5057879;28;20029;-85
2022/02/25 03:44:11;;;;;;;13.32;7.45;;;;;;;;;;5058844;28;20013;-85
2022/02/25 03:46:37;;;;;;;12.57;6.88;;;;;;;;;;5039393;28;20090;-86
2022/02/25 03:49:04;;;;;;;10.70;6.65;;;;;;;;;;5037049;28;20392;-87
2022/02/25 03:51:30;;;;;;;11.65;7.10;;;;;;;;;;5037749;28;20029;-86
2022/02/25 03:53:56;;;;;;;9.82;6.63;;;;;;;;;;5054275;28;20036;-86
2022/02/25 03:56:22;;;;;;;13.90;6.95;;;;;;;;;;5037134;28;20025;-86
2022/02/25 03:58:49;;;;;;;10.95;6.32;;;;;;;;;;5037612;28;20033;-84
2022/02/25 04:01:15;;;;;;;12.35;7.25;;;;;;;;;;5056587;28;20039;-84
2022/02/25 04:03:41;;;;;;;12.45;7.35;;;;;;;;;;5038759;28;20089;-86
2022/02/25 04:06:07;;;;;;;9.38;6.63;;;;;;;;;;5056056;28;20028;-86
2022/02/25 04:08:33;;;;;;;13.00;7.28;;;;;;;;;;5037398;28;20033;-86
2022/02/25 04:10:59;;;;;;;10.00;6.57;;;;;;;;;;5037848;28;20500;-85
2022/02/25 04:13:25;;;;;;;11.75;6.03;;;;;;;;;;5037710;28;20036;-87
2022/02/25 04:15:51;;;;;;;8.73;4.55;;;;;;;;;;5037030;28;20127;-86
2022/02/25 04:18:17;;;;;;;9.32;4.60;;;;;;;;;;5037502;28;20037;-86
2022/02/25 04:20:43;;;;;;;9.05;4.22;;;;;;;;;;5037913;28;20479;-86
2022/02/25 04:23:09;;;;;;;7.50;3.72;;;;;;;;;;5057210;28;20048;-85
2022/02/25 04:25:36;;;;;;;7.05;3.60;;;;;;;;;;5057750;28;20017;-86
2022/02/25 04:28:02;;;;;;;6.18;3.40;;;;;;;;;;5058038;28;20076;-84
2022/02/25 04:30:29;;;;;;;6.40;3.47;;;;;;;;;;5061426;28;20021;-85
2022/02/25 04:32:55;;;;;;;6.35;3.22;;;;;;;;;;5047222;28;20025;-86
2022/02/25 04:35:21;;;;;;;8.48;2.90;;;;;;;;;;5048563;28;20056;-87
2022/02/25 04:37:48;;;;;;;4.45;2.10;;;;;;;;;;5046276;28;20025;-86
2022/02/25 04:40:14;;;;;;;4.50;1.80;;;;;;;;;;5046452;28;20097;-86
2022/02/25 04:42:40;;;;;;;2.60;1.00;;;;;;;;;;5064996;28;20058;-84
2022/02/25 04:45:07;;;;;;;3.10;1.55;;;;;;;;;;5045849;28;20451;-86
2022/02/25 04:47:33;;;;;;;3.63;1.20;;;;;;;;;;5063921;28;20037;-86
2022/02/25 04:49:59;;;;;;;3.20;2.13;;;;;;;;;;5043896;28;20029;-86
2022/02/25 04:52:25;;;;;;;1.98;0.70;;;;;;;;;;5044995;28;20104;-85
2022/02/25 04:54:51;;;;;;;2.08;0.60;;;;;;;;;;5044571;28;20028;-84
2022/02/25 04:57:17;;;;;;;2.42;0.70;;;;;;;;;;5064678;28;20029;-85
2022/02/25 04:59:43;;;;;;;1.13;0.57;;;;;;;;;;5045144;28;20091;-83
2022/02/25 05:02:09;;;;;;;1.88;0.68;;;;;;;;;;5066799;28;20033;-85
2022/02/25 05:04:35;;;;;;;2.90;0.90;;;;;;;;;;5068301;28;20028;-84
2022/02/25 05:07:03;;;;;;;2.80;0.65;;;;;;;;;;5048800;28;20044;-85
2022/02/25 05:09:29;;;;;;;1.60;0.60;;;;;;;;;;5067930;28;20044;-84
2022/02/25 05:11:55;;;;;;;1.75;0.75;;;;;;;;;;5049672;28;20021;-85
2022/02/25 05:22:40;;;;;;;2.60;0.90;;;;;;;;;;5068886;28;20077;-87
2022/02/25 05:25:06;;;;;;;2.65;1.00;;;;;;;;;;5051455;28;20032;-84
2022/02/25 05:27:32;;;;;;;3.08;1.33;;;;;;;;;;5065283;28;20025;-84
2022/02/25 05:29:58;;;;;;;3.15;1.40;;;;;;;;;;5067797;28;20125;-85
2022/02/25 05:32:24;;;;;;;3.20;1.20;;;;;;;;;;5067295;28;20016;-84
2022/02/25 05:34:50;;;;;;;2.50;1.10;;;;;;;;;;5048952;28;20040;-84
2022/02/25 05:37:16;;;;;;;3.25;1.17;;;;;;;;;;5047330;28;20060;-84
2022/02/25 05:39:42;;;;;;;3.30;1.38;;;;;;;;;;5047323;28;20028;-83
2022/02/25 05:42:09;;;;;;;3.13;1.10;;;;;;;;;;5044382;28;20034;-85
2022/02/25 05:44:35;;;;;;;3.20;1.10;;;;;;;;;;5055612;28;20029;-84
2022/02/25 05:47:01;;;;;;;3.47;1.00;;;;;;;;;;5040718;28;20031;-84
2022/02/25 05:49:27;;;;;;;2.72;1.13;;;;;;;;;;5057984;28;20034;-83
2022/02/25 05:51:53;;;;;;;3.05;1.13;;;;;;;;;;5034896;28;20033;-84
2022/02/25 05:54:19;;;;;;;3.42;1.50;;;;;;;;;;5042106;28;20563;-83
2022/02/25 05:56:45;;;;;;;3.60;1.80;;;;;;;;;;5024464;28;20025;-82
2022/02/25 05:59:11;;;;;;;3.63;1.40;;;;;;;;;;5023306;28;20024;-82
2022/02/25 06:01:37;;;;;;;3.00;1.27;;;;;;;;;;5023023;28;20029;-84
2022/02/25 06:04:03;;;;;;;2.70;1.30;;;;;;;;;;5050485;28;20051;-82
2022/02/25 06:06:29;;;;;;;3.38;1.30;;;;;;;;;;5017292;28;20236;-83
2022/02/25 06:08:55;;;;;;;4.03;1.83;;;;;;;;;;5017354;28;20055;-84
2022/02/25 06:11:21;;;;;;;4.78;2.10;;;;;;;;;;5034336;28;20104;-85
2022/02/25 06:13:47;;;;;;;4.20;1.75;;;;;;;;;;5013670;28;20053;-82
2022/02/25 06:16:13;;;;;;;4.20;2.05;;;;;;;;;;5019071;28;20390;-82
2022/02/25 06:18:42;;;;;;;6.72;2.45;;;;;;;;;;5020082;28;20033;-82
2022/02/25 06:21:08;;;;;;;4.90;2.20;;;;;;;;;;5039066;28;20148;-83
2022/02/25 06:23:34;;;;;;;6.85;2.47;;;;;;;;;;5022237;28;20136;-86
2022/02/25 06:26:00;;;;;;;5.28;2.55;;;;;;;;;;5040013;28;20021;-86
2022/02/25 06:28:26;;;;;;;5.72;2.90;;;;;;;;;;5019717;28;20432;-83
2022/02/25 06:30:53;;;;;;;4.35;2.22;;;;;;;;;;5018675;28;20021;-85
2022/02/25 06:33:19;;;;;;;4.90;2.70;;;;;;;;;;5037691;28;20025;-86
2022/02/25 06:35:45;;;;;;;5.28;2.30;;;;;;;;;;5040605;28;20128;-84
2022/02/25 06:38:11;;;;;;;4.57;1.95;;;;;;;;;;5056352;28;20021;-85
2022/02/25 06:40:38;;;;;;;3.90;2.10;;;;;;;;;;5036010;28;20468;-83
2022/02/25 06:43:04;;;;;;;5.20;1.70;;;;;;;;;;5048520;28;20029;-84
2022/02/25 06:45:30;;;;;;;5.07;1.88;;;;;;;;;;5037630;28;20033;-86
2022/02/25 06:47:56;;;;;;;4.85;1.95;;;;;;;;;;5039194;28;20542;-83
2022/02/25 06:50:22;;;;;;;3.72;1.83;;;;;;;;;;5021273;28;20481;-83
2022/02/25 06:52:48;;;;;;;3.00;1.50;;;;;;;;;;5058614;28;20039;-84
2022/02/25 06:55:16;;;;;;;3.65;1.50;;;;;;;;;;5037311;28;20025;-83
2022/02/25 06:57:42;;;;;;;3.50;1.20;;;;;;;;;;5052491;28;20499;-84
2022/02/25 07:00:10;;;;;;;3.15;1.40;;;;;;;;;;5036375;28;20052;-84
2022/02/25 07:02:36;;;;;;;4.05;1.48;;;;;;;;;;5038098;28;20033;-84
2022/02/25 07:05:03;;;;;;;3.75;1.50;;;;;;;;;;5045391;28;20392;-83
2022/02/25 07:07:33;;;;;;;3.03;1.38;;;;;;;;;;5037746;28;20083;-85
2022/02/25 07:09:59;;;;;;;4.07;1.55;;;;;;;;;;5036323;28;20029;-86
2022/02/25 07:12:26;;;;;;;6.00;1.67;;;;;;;;;;5035791;28;20025;-87
2022/02/25 07:14:52;;;;;;;3.63;1.63;;;;;;;;;;5036965;28;20025;-85
2022/02/25 07:17:18;;;;;;;4.93;1.52;;;;;;;;;;5036916;28;20039;-85
2022/02/25 07:19:44;;;;;;;3.40;1.63;;;;;;;;;;5057172;28;20047;-85
2022/02/25 07:22:10;;;;;;;4.57;1.60;;;;;;;;;;5037865;28;20487;-86
2022/02/25 07:24:36;;;;;;;3.25;1.45;;;;;;;;;;5038120;28;20111;-87
2022/02/25 07:27:03;;;;;;;3.63;1.70;;;;;;;;;;5034601;28;20032;-88
2022/02/25 07:29:29;;;;;;;4.10;1.50;;;;;;;;;;5036829;28;20025;-86
2022/02/25 07:31:56;;;;;;;3.88;1.60;;;;;;;;;;5036457;28;20029;-87
2022/02/25 07:34:22;;;;;;;4.80;1.77;;;;;;;;;;5052052;28;20033;-86
2022/02/25 07:36:48;;;;;;;4.00;1.70;;;;;;;;;;5040554;28;20041;-85
2022/02/25 07:39:15;;;;;;;3.45;1.38;;;;;;;;;;5066745;28;20024;-86
2022/02/25 07:41:41;;;;;;;3.72;1.75;;;;;;;;;;5048409;28;20079;-85
2022/02/25 07:44:07;;;;;;;3.60;1.70;;;;;;;;;;5066262;28;20041;-84
2022/02/25 07:46:33;;;;;;;4.78;1.88;;;;;;;;;;5065569;28;20017;-82
2022/02/25 07:48:59;;;;;;;3.70;1.63;;;;;;;;;;5040905;28;20033;-83
2022/02/25 07:51:27;;;;;;;3.30;1.60;;;;;;;;;;5043914;28;20025;-84
2022/02/25 07:53:54;;;;;;;4.28;2.20;;;;;;;;;;5043776;28;20016;-85
2022/02/25 07:56:20;;;;;;;4.88;2.28;;;;;;;;;;5056181;28;20044;-84
2022/02/25 07:58:46;;;;;;;4.53;2.20;;;;;;;;;;5062706;28;20051;-83
2022/02/25 08:01:13;;;;;;;5.28;2.20;;;;;;;;;;5063426;28;20025;-84
2022/02/25 08:03:40;;;;;;;7.10;1.90;;;;;;;;;;5063631;28;20041;-83
2022/02/25 08:06:06;;;;;;;5.38;2.22;;;;;;;;;;5048386;28;20025;-84
2022/02/25 08:08:32;;;;;;;5.72;2.50;;;;;;;;;;5061847;28;20079;-84
2022/02/25 08:10:58;;;;;;;6.18;2.90;;;;;;;;;;5063534;28;20024;-85
2022/02/25 08:13:24;;;;;;;4.68;2.60;;;;;;;;;;5058960;28;20017;-84
2022/02/25 08:15:50;;;;;;;5.57;2.67;;;;;;;;;;5051810;28;20025;-84
2022/02/25 08:18:16;;;;;;;3.67;1.80;;;;;;;;;;5056948;28;20465;-84
2022/02/25 08:20:42;;;;;;;5.68;3.08;;;;;;;;;;5058597;28;20028;-84
2022/02/25 08:23:09;;;;;;;5.35;3.05;;;;;;;;;;5038299;28;20493;-84
2022/02/25 08:25:36;;;;;;;6.18;2.20;;;;;;;;;;5037698;28;20029;-84
2022/02/25 08:28:02;;;;;;;5.18;2.22;;;;;;;;;;5026159;28;20164;-84
2022/02/25 08:30:28;;;;;;;4.30;2.10;;;;;;;;;;5049416;28;20032;-84
2022/02/25 08:33:00;;;;;;;3.80;2.03;;;;;;;;;;5050147;28;20028;-85
2022/02/25 08:35:26;;;;;;;5.78;2.10;;;;;;;;;;5058053;28;20034;-84
2022/02/25 08:37:52;;;;;;;4.57;2.03;;;;;;;;;;5034447;28;20040;-84
2022/02/25 08:40:18;;;;;;;4.65;2.33;;;;;;;;;;5036767;28;20033;-83
2022/02/25 08:42:44;;;;;;;5.15;1.90;;;;;;;;;;5034757;28;20477;-83
2022/02/25 08:45:11;;;;;;;5.57;1.75;;;;;;;;;;5036016;28;20393;-86
2022/02/25 08:47:37;;;;;;;5.95;2.10;;;;;;;;;;5038531;28;20028;-87
2022/02/25 08:50:03;;;;;;;4.00;2.10;;;;;;;;;;5038728;28;20021;-84
2022/02/25 08:52:29;;;;;;;4.57;2.47;;;;;;;;;;5038947;28;20098;-84
2022/02/25 08:54:55;;;;;;;4.10;2.00;;;;;;;;;;5038992;28;20029;-85
2022/02/25 08:57:27;;;;;;;4.15;1.80;;;;;;;;;;5038130;28;20036;-84
2022/02/25 08:59:53;;;;;;;3.63;1.70;;;;;;;;;;5037673;28;20026;-85
2022/02/25 09:02:19;;;;;;;4.10;1.67;;;;;;;;;;5038557;28;20033;-84
2022/02/25 09:04:47;;;;;;;5.70;1.90;;;;;;;;;;5038670;28;20025;-85
2022/02/25 09:07:13;;;;;;;4.47;1.80;;;;;;;;;;5036712;28;20409;-84
2022/02/25 09:09:40;;;;;;;4.13;2.00;;;;;;;;;;5017085;28;20227;-84
2022/02/25 09:12:07;;;;;;;4.68;1.67;;;;;;;;;;5017772;28;20040;-86
2022/02/25 09:14:34;;;;;;;5.25;2.22;;;;;;;;;;5015777;28;20022;-83
2022/02/25 09:17:00;;;;;;;3.75;1.70;;;;;;;;;;5017081;28;20114;-86
2022/02/25 09:19:26;;;;;;;4.13;1.70;;;;;;;;;;5016423;28;20029;-84
2022/02/25 09:21:52;;;;;;;5.07;1.75;;;;;;;;;;5019539;28;20053;-85
2022/02/25 09:24:21;;;;;;;3.42;1.40;;;;;;;;;;5050099;28;20048;-84
2022/02/25 09:26:47;;;;;;;3.97;1.60;;;;;;;;;;5054333;28;20009;-87
2022/02/25 09:29:13;;;;;;;4.45;2.10;;;;;;;;;;5039963;28;20091;-85
2022/02/25 09:31:39;;;;;;;4.35;2.00;;;;;;;;;;5016418;28;20037;-86
2022/02/25 09:34:06;;;;;;;4.28;1.88;;;;;;;;;;5015046;28;20017;-85
2022/02/25 09:36:33;;;;;;;5.30;2.20;;;;;;;;;;5025631;28;20580;-86
2022/02/25 09:38:59;;;;;;;5.65;1.98;;;;;;;;;;5032136;28;20505;-85
2022/02/25 09:41:25;;;;;;;4.03;2.05;;;;;;;;;;5031296;28;20519;-84
2022/02/25 09:43:51;;;;;;;3.97;1.80;;;;;;;;;;5030490;28;20018;-84
2022/02/25 09:46:17;;;;;;;4.22;1.98;;;;;;;;;;5032364;28;20064;-86
2022/02/25 09:48:43;;;;;;;4.50;1.67;;;;;;;;;;5036314;28;20509;-85
2022/02/25 09:51:10;;;;;;;7.22;3.53;;;;;;;;;;5035903;28;20034;-85
2022/02/25 09:53:38;;;;;;;4.85;2.35;;;;;;;;;;5035892;28;20029;-84
2022/02/25 09:56:05;;;;;;;8.15;4.00;;;;;;;;;;5028181;28;20079;-84
2022/02/25 09:58:31;;;;;;;5.57;2.38;;;;;;;;;;5048248;28;20036;-84
2022/02/25 10:00:57;;;;;;;3.78;1.90;;;;;;;;;;5039249;28;20022;-84
2022/02/25 10:03:25;;;;;;;5.38;2.15;;;;;;;;;;5037279;28;20449;-87
2022/02/25 10:05:51;;;;;;;4.63;1.70;;;;;;;;;;5035099;28;20045;-85
2022/02/25 10:08:24;;;;;;;3.25;1.30;;;;;;;;;;5036011;28;20057;-86
2022/02/25 10:10:54;;;;;;;7.13;2.70;;;;;;;;;;5032816;28;20057;-86
2022/02/25 10:13:25;;;;;;;3.22;1.50;;;;;;;;;;5036640;28;20034;-86
2022/02/25 10:15:52;;;;;;;2.78;1.17;;;;;;;;;;5036761;28;20025;-85
2022/02/25 10:18:18;;;;;;;4.28;1.88;;;;;;;;;;5036833;28;20037;-86
2022/02/25 10:20:45;;;;;;;4.68;1.50;;;;;;;;;;5038469;28;20033;-86
2022/02/25 10:23:22;;;;;;;2.28;0.70;;;;;;;;;;5041819;28;20026;-87
2022/02/25 10:25:48;;;;;;;3.85;0.98;;;;;;;;;;5037385;28;20049;-86
2022/02/25 10:28:17;;;;;;;2.70;0.90;;;;;;;;;;5037002;28;20018;-83
2022/02/25 10:30:45;;;;;;;2.60;0.90;;;;;;;;;;5041212;28;20020;-84
2022/02/25 10:33:11;;;;;;;1.63;0.60;;;;;;;;;;5038749;28;20115;-85
2022/02/25 10:35:39;;;;;;;3.67;1.83;;;;;;;;;;5040962;28;20484;-84
2022/02/25 10:38:10;;;;;;;3.20;1.08;;;;;;;;;;5043067;28;20025;-85
2022/02/25 10:40:40;;;;;;;1.83;0.70;;;;;;;;;;5022798;28;20052;-84
2022/02/25 10:43:10;;;;;;;2.13;0.90;;;;;;;;;;5022026;28;20030;-85
2022/02/25 10:45:41;;;;;;;1.95;0.70;;;;;;;;;;5022834;28;20408;-83
2022/02/25 10:48:09;;;;;;;2.55;0.85;;;;;;;;;;5022047;28;20497;-84
2022/02/25 10:50:50;;;;;;;2.50;1.05;;;;;;;;;;5039919;28;20025;-86
2022/02/25 10:53:18;;;;;;;2.30;0.90;;;;;;;;;;5038887;28;20436;-83
2022/02/25 10:55:47;;;;;;;1.92;0.70;;;;;;;;;;5039009;28;20076;-85
2022/02/25 10:58:15;;;;;;;4.00;0.93;;;;;;;;;;4998875;28;20018;-84
2022/02/25 11:00:41;;;;;;;4.50;1.10;;;;;;;;;;5018339;28;20026;-82
2022/02/25 11:03:07;;;;;;;3.17;0.90;;;;;;;;;;5003490;28;20449;-85
2022/02/25 11:05:33;;;;;;;3.53;0.80;;;;;;;;;;5020464;28;20018;-86
2022/02/25 11:08:01;;;;;;;2.92;1.02;;;;;;;;;;5019950;28;20452;-86
2022/02/25 11:10:28;;;;;;;2.83;1.05;;;;;;;;;;5038437;28;20104;-84
2022/02/25 11:12:55;;;;;;;2.88;1.15;;;;;;;;;;5021406;28;20029;-84
2022/02/25 11:15:24;;;;;;;4.35;1.50;;;;;;;;;;5042206;28;20017;-87
2022/02/25 11:17:50;;;;;;;2.70;1.00;;;;;;;;;;5041492;28;20089;-85
2022/02/25 11:20:21;;;;;;;3.67;1.45;;;;;;;;;;5048876;28;20025;-81
2022/02/25 11:22:49;;;;;;;5.10;1.70;;;;;;;;;;5049631;28;20041;-83
2022/02/25 11:25:16;;;;;;;4.55;1.60;;;;;;;;;;5044157;28;20029;-81
2022/02/25 11:27:42;;;;;;;4.13;1.20;;;;;;;;;;5038801;28;20432;-81
2022/02/25 11:30:10;;;;;;;3.13;1.10;;;;;;;;;;5039111;28;20045;-82
2022/02/25 11:32:39;;;;;;;2.65;1.00;;;;;;;;;;5019236;28;20030;-82
2022/02/25 11:35:19;;;;;;;3.42;1.40;;;;;;;;;;5021238;28;20125;-82
2022/02/25 11:37:51;;;;;;;3.20;1.13;;;;;;;;;;5058017;28;20036;-81
2022/02/25 11:40:38;;;;;;;3.70;0.88;;;;;;;;;;5057203;28;20033;-82
2022/02/25 11:43:07;;;;;;;2.08;0.88;;;;;;;;;;5055953;28;20031;-84
2022/02/25 11:45:47;;;;;;;1.73;0.70;;;;;;;;;;5056684;28;20025;-82
2022/02/25 11:48:17;;;;;;;2.88;1.35;;;;;;;;;;5055174;28;20236;-81
2022/02/25 11:50:43;;;;;;;4.55;1.73;;;;;;;;;;5059339;28;20025;-81
2022/02/25 11:53:20;;;;;;;3.25;0.98;;;;;;;;;;5056350;28;20044;-81
2022/02/25 11:55:47;;;;;;;1.80;0.70;;;;;;;;;;5061392;28;20029;-81
2022/02/25 11:58:31;;;;;;;2.95;0.80;;;;;;;;;;5057967;28;20029;-81
2022/02/25 12:01:07;;;;;;;3.30;0.85;;;;;;;;;;5054903;28;20096;-82
2022/02/25 12:03:34;;;;;;;2.70;1.00;;;;;;;;;;5060008;28;20063;-81
2022/02/25 12:06:00;;;;;;;2.03;0.93;;;;;;;;;;5061101;28;20129;-81
2022/02/25 12:08:28;;;;;;;3.08;1.00;;;;;;;;;;5039074;28;20017;-82
2022/02/25 12:10:57;;;;;;;3.05;0.90;;;;;;;;;;5057726;28;20051;-82
2022/02/25 12:13:24;;;;;;;2.10;0.80;;;;;;;;;;5060354;28;20028;-83
2022/02/25 12:15:50;;;;;;;2.63;0.90;;;;;;;;;;5046284;28;20038;-79
2022/02/25 12:18:17;;;;;;;1.73;0.70;;;;;;;;;;5066759;28;20029;-81
2022/02/25 12:20:44;;;;;;;2.22;0.75;;;;;;;;;;5061586;28;20392;-81
2022/02/25 12:23:23;;;;;;;2.85;0.90;;;;;;;;;;5061196;28;20024;-83
2022/02/25 12:25:55;;;;;;;2.97;1.00;;;;;;;;;;5060479;28;20028;-82
2022/02/25 12:28:28;;;;;;;2.08;0.75;;;;;;;;;;5059168;28;20013;-82
2022/02/25 12:30:57;;;;;;;3.38;1.27;;;;;;;;;;5061218;28;20013;-79
2022/02/25 12:33:42;;;;;;;2.78;0.90;;;;;;;;;;5054782;28;20009;-80
2022/02/25 12:36:15;;;;;;;4.45;1.20;;;;;;;;;;5058252;28;20420;-81
2022/02/25 12:38:47;;;;;;;4.50;1.20;;;;;;;;;;5058850;28;20025;-81
2022/02/25 12:41:14;;;;;;;2.10;0.80;;;;;;;;;;5058548;28;20028;-82
2022/02/25 12:43:53;;;;;;;2.60;1.02;;;;;;;;;;5059255;28;20069;-82
2022/02/25 12:46:20;;;;;;;3.65;0.80;;;;;;;;;;5035370;28;20021;-80
2022/02/25 12:48:46;;;;;;;3.10;1.00;;;;;;;;;;5041884;28;20033;-81
2022/02/25 12:51:13;;;;;;;2.33;0.90;;;;;;;;;;5048716;28;20116;-84
2022/02/25 12:53:55;;;;;;;2.95;1.10;;;;;;;;;;5055895;28;20024;-81
2022/02/25 12:56:23;;;;;;;5.05;2.58;;;;;;;;;;5056651;28;20021;-82
2022/02/25 12:58:50;;;;;;;3.03;0.98;;;;;;;;;;5061509;28;20024;-81
2022/02/25 13:01:26;;;;;;;3.20;1.10;;;;;;;;;;5074128;28;20044;-81
2022/02/25 13:04:02;;;;;;;2.30;1.10;;;;;;;;;;5074704;28;20074;-81
2022/02/25 13:06:29;;;;;;;3.50;0.90;;;;;;;;;;5075548;28;20033;-81
2022/02/25 13:08:59;;;;;;;3.78;1.00;;;;;;;;;;5061871;28;20100;-83
2022/02/25 13:11:26;;;;;;;2.15;0.80;;;;;;;;;;5056107;28;20116;-82
2022/02/25 13:13:53;;;;;;;3.22;0.90;;;;;;;;;;5038216;28;20025;-82
2022/02/25 13:16:19;;;;;;;2.47;0.90;;;;;;;;;;5037082;28;20492;-84
2022/02/25 13:18:45;;;;;;;2.90;0.90;;;;;;;;;;5055739;28;20100;-83
2022/02/25 13:21:12;;;;;;;2.30;0.80;;;;;;;;;;5054932;28;20040;-82
2022/02/25 13:23:46;;;;;;;3.03;0.88;;;;;;;;;;5059133;28;20090;-81
2022/02/25 13:26:18;;;;;;;2.92;0.90;;;;;;;;;;5058304;28;20025;-83
2022/02/25 13:28:44;;;;;;;2.40;0.82;;;;;;;;;;5058893;28;20044;-80
2022/02/25 13:31:10;;;;;;;2.08;0.90;;;;;;;;;;5041361;28;20031;-83
2022/02/25 13:33:36;;;;;;;2.22;0.80;;;;;;;;;;5058860;28;20053;-83
2022/02/25 13:36:05;;;;;;;2.53;1.00;;;;;;;;;;5061199;28;20718;-81
2022/02/25 13:38:32;;;;;;;1.83;0.70;;;;;;;;;;5061659;28;20025;-81
2022/02/25 13:41:01;;;;;;;3.60;1.00;;;;;;;;;;5061846;28;20029;-81
2022/02/25 13:43:38;;;;;;;2.60;0.88;;;;;;;;;;5061159;28;20044;-84
2022/02/25 13:46:18;;;;;;;3.17;0.90;;;;;;;;;;5055150;28;20051;-82
2022/02/25 13:54:26;;;;;;;4.05;1.10;;;;;;;;;;5060810;28;20503;-80
2022/02/25 13:56:53;;;;;;;5.18;1.60;;;;;;;;;;5055858;28;20026;-82
2022/02/25 13:59:21;;;;;;;4.82;1.27;;;;;;;;;;5067913;28;20040;-81
2022/02/25 14:01:47;;;;;;;4.55;1.70;;;;;;;;;;5067883;28;20021;-82
2022/02/25 14:04:21;;;;;;;2.28;1.00;;;;;;;;;;5049840;28;20089;-82
2022/02/25 14:06:50;;;;;;;2.92;0.95;;;;;;;;;;5066539;28;20021;-82
2022/02/25 14:09:16;;;;;;;2.25;0.82;;;;;;;;;;5067037;28;20043;-81
2022/02/25 14:11:42;;;;;;;3.50;1.25;;;;;;;;;;5047144;28;20037;-83
2022/02/25 14:14:09;;;;;;;4.30;0.90;;;;;;;;;;5067769;28;20473;-82
2022/02/25 14:16:36;;;;;;;3.90;1.10;;;;;;;;;;5065406;28;20500;-80
2022/02/25 14:19:12;;;;;;;3.50;1.20;;;;;;;;;;5065617;28;20021;-82
2022/02/25 14:21:38;;;;;;;2.47;0.80;;;;;;;;;;5062237;28;20017;-81
2022/02/25 14:24:19;;;;;;;2.55;1.00;;;;;;;;;;5061745;28;20043;-80
2022/02/25 14:26:45;;;;;;;2.67;0.73;;;;;;;;;;5042555;28;20041;-81
2022/02/25 14:29:18;;;;;;;2.80;0.77;;;;;;;;;;5060497;28;20016;-81
2022/02/25 14:31:44;;;;;;;;;;;;;;;;;;5062414;28;20028;-81
2022/02/25 14:34:10;;;;;;;4.20;1.10;;;;;;;;;;5054768;28;19913;-81
2022/02/25 14:36:36;;;;;;;1.58;0.68;;;;;;;;;;5063326;28;20041;-80
2022/02/25 14:39:07;;;;;;;2.38;0.70;;;;;;;;;;5079947;28;20036;-82
2022/02/25 14:41:33;;;;;;;2.60;0.82;;;;;;;;;;5046406;28;20036;-83
2022/02/25 14:44:09;;;;;;;2.47;0.98;;;;;;;;;;5050445;28;20029;-81
2022/02/25 14:46:35;;;;;;;2.75;0.90;;;;;;;;;;5054033;28;20047;-81
2022/02/25 14:49:02;;;;;;;2.83;1.05;;;;;;;;;;5062497;28;20021;-82
2022/02/25 14:51:28;;;;;;;2.40;0.80;;;;;;;;;;5038462;28;20025;-83
2022/02/25 14:53:54;;;;;;;2.40;0.80;;;;;;;;;;5048609;28;20104;-82
2022/02/25 14:56:20;;;;;;;3.28;0.80;;;;;;;;;;5057942;28;20118;-83